Time;durP1;ratioP1;P1;durP2;ratioP2;P2;SDS_P1;SDS_P2;PMS_P1;PMS_P2;Temp;Humidity;BMP_temperature;BMP_pressure;BME280_temperature;BME280_humidity;BME280_pressure;Samples;Min_cycle;Max_cycle;Signal;HPM_P1;HPM_P2
2021/06/29 00:01:40;;;;;;;7.27;6.57;;;16.80;99.90;;;;;;5046228;28;20529;-77
2021/06/29 00:04:06;;;;;;;7.37;6.77;;;16.80;99.90;;;;;;5050479;28;20543;-77
2021/06/29 00:06:34;;;;;;;7.13;6.53;;;16.80;99.90;;;;;;5049893;28;20855;-78
2021/06/29 00:09:01;;;;;;;6.53;6.03;;;16.80;99.90;;;;;;5051358;28;20546;-78
2021/06/29 00:11:28;;;;;;;7.50;6.90;;;16.80;99.90;;;;;;5050715;28;20518;-78
2021/06/29 00:13:55;;;;;;;7.03;6.43;;;16.90;99.90;;;;;;5045688;28;20627;-77
2021/06/29 00:16:22;;;;;;;7.47;6.80;;;16.80;99.90;;;;;;5049234;28;20865;-78
2021/06/29 00:18:49;;;;;;;8.10;7.30;;;16.80;99.90;;;;;;5043810;28;20491;-78
2021/06/29 00:21:16;;;;;;;7.83;7.13;;;16.80;99.90;;;;;;5047717;28;20445;-77
2021/06/29 00:23:44;;;;;;;10.70;8.00;;;16.90;99.90;;;;;;5038626;28;20538;-77
2021/06/29 00:26:11;;;;;;;8.57;7.87;;;16.90;99.90;;;;;;5051743;28;20527;-77
2021/06/29 00:28:38;;;;;;;8.40;7.80;;;16.90;99.90;;;;;;5047256;28;20459;-78
2021/06/29 00:31:05;;;;;;;9.80;8.80;;;17.00;99.90;;;;;;5049322;28;20904;-78
2021/06/29 00:33:32;;;;;;;10.07;9.10;;;17.00;99.90;;;;;;5043026;28;20488;-77
2021/06/29 00:35:59;;;;;;;8.10;7.47;;;17.20;99.90;;;;;;5048120;28;21086;-77
2021/06/29 00:38:26;;;;;;;7.93;7.13;;;17.20;99.90;;;;;;5042396;28;20487;-77
2021/06/29 00:40:54;;;;;;;8.27;7.53;;;17.10;99.90;;;;;;5043566;28;20535;-77
2021/06/29 00:43:22;;;;;;;8.40;7.73;;;17.10;99.90;;;;;;5040645;28;20454;-77
2021/06/29 00:45:49;;;;;;;9.50;8.70;;;17.10;99.90;;;;;;5049261;28;20461;-77
2021/06/29 00:48:15;;;;;;;8.00;7.30;;;17.10;99.90;;;;;;5050091;28;20540;-77
2021/06/29 00:50:44;;;;;;;7.60;7.00;;;17.10;99.90;;;;;;5045115;28;20459;-77
2021/06/29 00:53:11;;;;;;;7.30;6.70;;;17.00;99.90;;;;;;5047588;28;21022;-77
2021/06/29 00:55:39;;;;;;;7.10;6.60;;;17.10;99.90;;;;;;5045654;28;20468;-77
2021/06/29 00:58:09;;;;;;;7.50;7.00;;;17.00;99.90;;;;;;5045307;28;20573;-77
2021/06/29 01:00:36;;;;;;;8.07;7.30;;;17.10;99.90;;;;;;5044613;28;20462;-77
2021/06/29 01:03:04;;;;;;;8.20;7.40;;;17.20;99.90;;;;;;5048533;28;20533;-77
2021/06/29 01:05:31;;;;;;;11.13;8.27;;;17.30;99.90;;;;;;5045767;28;20479;-77
2021/06/29 01:07:57;;;;;;;8.20;7.50;;;17.30;99.90;;;;;;5041575;28;20471;-77
2021/06/29 01:10:25;;;;;;;9.73;8.93;;;17.40;99.90;;;;;;5042517;28;20947;-78
2021/06/29 01:12:52;;;;;;;8.40;7.80;;;17.40;99.90;;;;;;5056998;28;20515;-78
2021/06/29 01:15:23;;;;;;;7.23;6.67;;;17.40;99.90;;;;;;5055749;28;21404;-78
2021/06/29 01:17:51;;;;;;;9.63;8.73;;;17.40;99.90;;;;;;5049879;28;20448;-78
2021/06/29 01:20:23;;;;;;;8.53;7.73;;;17.40;99.90;;;;;;5041263;28;20484;-78
2021/06/29 01:22:53;;;;;;;7.57;6.90;;;17.40;99.90;;;;;;5048314;28;20461;-78
2021/06/29 01:25:21;;;;;;;8.80;8.00;;;17.40;99.90;;;;;;5044190;28;20474;-78
2021/06/29 01:27:55;;;;;;;8.20;7.50;;;17.30;99.90;;;;;;5050368;28;20488;-78
2021/06/29 01:33:08;;;;;;;8.00;7.30;;;17.40;99.90;;;;;;5051091;28;20464;-78
2021/06/29 01:35:39;;;;;;;9.10;8.40;;;17.40;99.90;;;;;;5049396;28;20493;-78
2021/06/29 01:38:06;;;;;;;9.50;8.80;;;17.40;99.90;;;;;;5051923;28;20449;-77
2021/06/29 01:40:33;;;;;;;8.17;7.47;;;17.50;99.90;;;;;;5042567;28;20453;-78
2021/06/29 01:43:00;;;;;;;7.77;7.07;;;17.40;99.90;;;;;;5049180;28;20481;-78
2021/06/29 01:45:29;;;;;;;8.60;8.00;;;17.40;99.90;;;;;;5051054;28;20468;-78
2021/06/29 01:48:01;;;;;;;9.33;8.40;;;17.40;99.90;;;;;;5045940;28;20480;-77
2021/06/29 01:50:28;;;;;;;8.70;7.87;;;17.40;99.90;;;;;;5049042;28;20449;-77
2021/06/29 01:52:59;;;;;;;9.20;8.47;;;17.40;99.90;;;;;;5048333;28;20492;-76
2021/06/29 01:55:28;;;;;;;9.67;8.97;;;17.40;99.90;;;;;;5048944;28;20467;-77
2021/06/29 01:57:55;;;;;;;11.37;10.37;;;17.40;99.90;;;;;;5042641;28;20444;-77
2021/06/29 02:00:25;;;;;;;10.80;9.90;;;17.40;99.90;;;;;;5043901;28;20564;-77
2021/06/29 02:02:52;;;;;;;12.67;11.47;;;17.40;99.90;;;;;;5046115;28;21069;-77
2021/06/29 02:05:19;;;;;;;11.40;10.50;;;17.40;99.90;;;;;;5051040;28;20515;-76
2021/06/29 02:07:46;;;;;;;10.80;9.90;;;17.40;99.90;;;;;;5048701;28;20473;-75
2021/06/29 02:10:16;;;;;;;10.87;9.97;;;17.50;99.90;;;;;;5052798;28;20451;-75
2021/06/29 02:12:44;;;;;;;8.87;8.27;;;17.50;99.90;;;;;;5050770;28;20453;-75
2021/06/29 02:15:12;;;;;;;9.43;8.83;;;17.50;99.90;;;;;;5047815;28;20452;-75
2021/06/29 02:17:39;;;;;;;9.53;8.83;;;17.50;99.90;;;;;;5050183;28;20486;-75
2021/06/29 02:20:07;;;;;;;10.20;9.17;;;17.40;99.90;;;;;;5053425;28;20443;-75
2021/06/29 02:22:35;;;;;;;10.50;9.60;;;17.40;99.90;;;;;;5045770;28;20483;-75
2021/06/29 02:25:02;;;;;;;11.13;10.23;;;17.40;99.90;;;;;;5047411;28;20546;-75
2021/06/29 02:27:30;;;;;;;10.67;9.97;;;17.40;99.90;;;;;;5044191;28;21727;-76
2021/06/29 02:29:57;;;;;;;9.83;9.17;;;17.40;99.90;;;;;;5047177;28;20463;-76
2021/06/29 02:32:25;;;;;;;10.47;9.50;;;17.40;99.90;;;;;;5049017;28;20449;-76
2021/06/29 02:34:51;;;;;;;9.30;8.50;;;17.40;99.90;;;;;;5046592;28;20455;-76
2021/06/29 02:37:19;;;;;;;8.40;7.70;;;17.40;99.90;;;;;;5053429;28;20440;-76
2021/06/29 02:39:46;;;;;;;8.53;7.90;;;17.30;99.90;;;;;;5047114;28;20554;-76
2021/06/29 02:42:13;;;;;;;9.00;8.20;;;17.40;99.90;;;;;;5051048;28;20507;-76
2021/06/29 02:44:42;;;;;;;8.13;7.43;;;17.30;99.90;;;;;;5044406;28;20491;-76
2021/06/29 02:47:11;;;;;;;7.10;6.57;;;17.30;99.90;;;;;;5053492;28;20451;-75
2021/06/29 02:49:37;;;;;;;8.40;7.80;;;17.30;99.90;;;;;;5041684;28;20461;-75
2021/06/29 02:52:05;;;;;;;8.30;7.70;;;17.40;99.90;;;;;;5047665;28;20548;-75
2021/06/29 02:54:32;;;;;;;9.00;8.30;;;17.30;99.90;;;;;;5042523;28;20464;-75
2021/06/29 02:56:59;;;;;;;9.70;8.70;;;17.40;99.90;;;;;;5052359;28;20969;-75
2021/06/29 02:59:26;;;;;;;8.60;8.00;;;17.40;99.90;;;;;;5047778;28;20453;-75
2021/06/29 03:01:54;;;;;;;9.90;9.10;;;17.40;99.90;;;;;;5046529;28;20488;-76
2021/06/29 03:04:21;;;;;;;8.87;8.17;;;17.40;99.90;;;;;;5041302;28;20457;-76
2021/06/29 03:06:48;;;;;;;9.80;9.10;;;17.40;99.90;;;;;;5055213;28;20533;-75
2021/06/29 03:09:15;;;;;;;9.40;8.70;;;17.40;99.90;;;;;;5047770;28;20477;-75
2021/06/29 03:11:41;;;;;;;10.27;9.37;;;17.30;99.90;;;;;;5050376;28;20468;-75
2021/06/29 03:14:08;;;;;;;9.40;8.70;;;17.30;99.90;;;;;;5045705;28;20447;-77
2021/06/29 03:16:35;;;;;;;10.30;9.50;;;17.30;99.90;;;;;;5046750;28;20464;-77
2021/06/29 03:19:03;;;;;;;10.10;9.37;;;17.30;99.90;;;;;;5056642;28;20476;-79
2021/06/29 03:21:30;;;;;;;10.27;9.47;;;17.30;99.90;;;;;;5047543;28;20462;-77
2021/06/29 03:23:57;;;;;;;9.93;9.13;;;17.30;99.90;;;;;;5050023;28;20453;-77
2021/06/29 03:26:24;;;;;;;7.87;7.17;;;17.40;99.90;;;;;;5052936;28;20465;-77
2021/06/29 03:28:51;;;;;;;7.90;7.20;;;17.80;99.90;;;;;;5053893;28;20476;-77
2021/06/29 03:31:18;;;;;;;8.27;7.67;;;17.90;99.90;;;;;;5048783;28;20482;-76
2021/06/29 03:33:45;;;;;;;8.67;7.97;;;18.00;99.90;;;;;;5049234;28;20489;-75
2021/06/29 03:36:13;;;;;;;9.17;8.57;;;17.90;99.90;;;;;;5054757;28;20447;-76
2021/06/29 03:38:40;;;;;;;10.20;9.50;;;18.00;99.90;;;;;;5061471;28;20512;-77
2021/06/29 03:41:07;;;;;;;10.07;9.27;;;18.00;99.90;;;;;;5043142;28;20463;-74
2021/06/29 03:43:36;;;;;;;10.00;9.13;;;18.10;99.90;;;;;;5054076;28;20543;-74
2021/06/29 03:46:04;;;;;;;10.17;9.37;;;18.20;99.90;;;;;;5046427;28;20463;-74
2021/06/29 03:48:30;;;;;;;9.90;9.10;;;18.20;99.90;;;;;;5043830;28;20482;-73
2021/06/29 03:50:57;;;;;;;8.63;7.93;;;18.30;99.90;;;;;;5043745;28;21051;-74
2021/06/29 03:53:25;;;;;;;8.10;7.50;;;18.10;99.90;;;;;;5047945;28;20459;-74
2021/06/29 03:55:52;;;;;;;8.37;7.77;;;18.20;99.90;;;;;;5044455;28;20471;-74
2021/06/29 03:58:20;;;;;;;7.23;6.53;;;18.50;99.90;;;;;;5047000;28;20458;-74
2021/06/29 04:00:47;;;;;;;7.90;7.40;;;18.40;97.70;;;;;;5046019;28;20445;-76
2021/06/29 04:03:14;;;;;;;8.53;7.97;;;18.30;99.90;;;;;;5050141;28;20446;-73
2021/06/29 04:05:40;;;;;;;8.57;7.87;;;18.30;99.90;;;;;;5052785;28;20453;-74
2021/06/29 04:08:08;;;;;;;8.23;7.70;;;18.30;99.90;;;;;;5040537;28;20600;-73
2021/06/29 04:10:36;;;;;;;8.40;7.87;;;18.20;99.90;;;;;;5047754;28;20465;-75
2021/06/29 04:13:03;;;;;;;8.43;7.83;;;18.30;99.90;;;;;;5046551;28;20445;-75
2021/06/29 04:15:30;;;;;;;8.87;8.17;;;18.30;99.90;;;;;;5045819;28;21414;-75
2021/06/29 04:17:57;;;;;;;9.20;8.30;;;18.30;99.90;;;;;;5039415;28;20505;-76
2021/06/29 04:20:24;;;;;;;9.07;8.37;;;18.30;99.90;;;;;;5052095;28;20479;-75
2021/06/29 04:22:50;;;;;;;11.60;8.60;;;18.20;99.90;;;;;;5047111;28;20848;-76
2021/06/29 04:25:18;;;;;;;10.07;8.90;;;18.20;99.90;;;;;;5049181;28;20469;-76
2021/06/29 04:27:46;;;;;;;9.20;8.30;;;18.10;99.90;;;;;;5041466;28;20469;-75
2021/06/29 04:30:14;;;;;;;9.33;8.30;;;18.30;99.90;;;;;;5052208;28;20469;-75
2021/06/29 04:32:41;;;;;;;8.63;8.03;;;18.40;99.90;;;;;;5043723;28;20492;-76
2021/06/29 04:35:09;;;;;;;10.27;9.57;;;18.40;99.70;;;;;;5046251;28;20446;-75
2021/06/29 04:37:35;;;;;;;11.20;8.60;;;18.30;99.60;;;;;;5043777;28;20534;-76
2021/06/29 04:40:02;;;;;;;9.07;8.30;;;18.40;98.70;;;;;;5049437;28;20556;-76
2021/06/29 04:42:29;;;;;;;10.63;8.30;;;18.40;98.20;;;;;;5049910;28;20552;-75
2021/06/29 04:44:58;;;;;;;9.30;8.53;;;18.40;98.50;;;;;;5046311;28;20476;-75
2021/06/29 04:47:24;;;;;;;9.63;8.87;;;18.40;99.50;;;;;;5046822;28;20500;-76
2021/06/29 04:49:55;;;;;;;9.80;9.10;;;18.30;98.50;;;;;;5039974;28;20604;-75
2021/06/29 04:52:22;;;;;;;10.23;8.97;;;18.30;99.90;;;;;;5047139;28;20498;-76
2021/06/29 04:54:49;;;;;;;9.47;8.77;;;18.30;99.90;;;;;;5043562;28;20490;-76
2021/06/29 04:57:15;;;;;;;8.83;8.13;;;18.20;99.90;;;;;;5052596;28;21011;-76
2021/06/29 04:59:42;;;;;;;10.40;9.60;;;18.20;99.90;;;;;;5045680;28;20545;-76
2021/06/29 05:02:11;;;;;;;9.70;8.90;;;18.30;99.90;;;;;;5046775;28;20764;-75
2021/06/29 05:04:37;;;;;;;10.37;9.47;;;18.20;99.90;;;;;;5044452;28;20591;-76
2021/06/29 05:07:05;;;;;;;10.27;9.20;;;18.20;99.90;;;;;;5047361;28;20564;-75
2021/06/29 05:09:31;;;;;;;10.87;9.87;;;18.20;99.90;;;;;;5047027;28;20476;-75
2021/06/29 05:11:58;;;;;;;10.00;9.13;;;18.30;99.90;;;;;;5050359;28;20817;-77
2021/06/29 05:14:25;;;;;;;10.17;9.33;;;18.40;99.90;;;;;;5039779;28;20601;-76
2021/06/29 05:16:52;;;;;;;9.53;8.60;;;18.50;99.90;;;;;;5046413;28;21031;-76
2021/06/29 05:19:20;;;;;;;9.47;8.70;;;18.60;99.90;;;;;;5054383;28;20499;-76
2021/06/29 05:21:47;;;;;;;9.20;8.30;;;18.80;99.90;;;;;;5047385;28;20543;-75
2021/06/29 05:24:14;;;;;;;9.73;8.87;;;18.70;99.50;;;;;;5037345;28;20461;-75
2021/06/29 05:26:41;;;;;;;9.13;8.20;;;18.80;99.10;;;;;;5046626;28;20819;-76
2021/06/29 05:29:08;;;;;;;9.50;8.47;;;18.80;98.40;;;;;;5045659;28;20512;-76
2021/06/29 05:31:35;;;;;;;9.20;8.07;;;18.90;97.40;;;;;;5046845;28;20549;-75
2021/06/29 05:34:01;;;;;;;8.23;7.53;;;19.20;95.90;;;;;;5053360;28;20989;-75
2021/06/29 05:36:30;;;;;;;7.33;6.80;;;19.20;95.90;;;;;;5044245;28;20474;-76
2021/06/29 05:38:56;;;;;;;7.90;7.33;;;19.20;94.20;;;;;;5047699;28;20506;-76
2021/06/29 05:41:24;;;;;;;8.97;8.20;;;19.20;94.20;;;;;;5052250;28;20792;-76
2021/06/29 05:43:51;;;;;;;7.40;6.90;;;19.20;93.40;;;;;;5052382;28;21223;-76
2021/06/29 05:46:18;;;;;;;8.17;6.73;;;19.30;92.30;;;;;;5045605;28;20533;-76
2021/06/29 05:48:45;;;;;;;7.13;6.27;;;19.30;92.50;;;;;;5048025;28;20483;-76
2021/06/29 05:51:12;;;;;;;5.17;4.77;;;19.40;91.30;;;;;;5049780;28;20487;-76
2021/06/29 05:53:40;;;;;;;5.93;5.40;;;19.50;90.00;;;;;;5046757;28;20449;-76
2021/06/29 05:56:07;;;;;;;7.27;5.57;;;19.90;90.70;;;;;;5049199;28;20465;-76
2021/06/29 05:58:34;;;;;;;5.90;5.40;;;20.30;88.60;;;;;;5049248;28;20444;-76
2021/06/29 06:01:01;;;;;;;5.17;4.77;;;20.50;86.50;;;;;;5048232;28;21000;-76
2021/06/29 06:03:28;;;;;;;5.97;5.27;;;20.50;83.20;;;;;;5051153;28;20502;-75
2021/06/29 06:05:55;;;;;;;5.33;4.90;;;20.50;84.50;;;;;;5049911;28;20444;-75
2021/06/29 06:08:22;;;;;;;5.60;5.10;;;20.40;84.80;;;;;;5050630;28;20934;-75
2021/06/29 06:10:51;;;;;;;5.70;5.20;;;20.50;85.00;;;;;;5046924;28;20458;-75
2021/06/29 06:13:18;;;;;;;6.43;5.17;;;20.30;85.10;;;;;;5049340;28;20469;-75
2021/06/29 06:15:45;;;;;;;8.03;4.97;;;20.30;84.30;;;;;;5045970;28;20462;-75
2021/06/29 06:18:12;;;;;;;5.47;4.97;;;20.50;84.40;;;;;;5046992;28;20465;-76
2021/06/29 06:20:39;;;;;;;5.83;5.43;;;20.50;83.40;;;;;;5053003;28;20540;-76
2021/06/29 06:23:07;;;;;;;5.50;5.00;;;20.60;84.30;;;;;;5049956;28;20463;-76
2021/06/29 06:25:35;;;;;;;5.87;5.37;;;20.70;85.50;;;;;;5052876;28;20453;-76
2021/06/29 06:28:05;;;;;;;5.33;4.93;;;20.70;84.30;;;;;;5046675;28;20882;-76
2021/06/29 06:30:32;;;;;;;5.70;5.30;;;21.00;84.00;;;;;;5051033;28;20495;-76
2021/06/29 06:32:59;;;;;;;5.30;4.60;;;21.10;81.90;;;;;;5048892;28;20525;-76
2021/06/29 06:35:26;;;;;;;5.90;5.37;;;21.20;82.20;;;;;;5049625;28;20942;-76
2021/06/29 06:37:53;;;;;;;6.20;4.97;;;21.20;81.30;;;;;;5050469;28;20894;-76
2021/06/29 06:40:20;;;;;;;5.83;5.33;;;21.10;81.80;;;;;;5053274;28;20449;-76
2021/06/29 06:42:47;;;;;;;6.13;5.60;;;21.10;81.70;;;;;;5045648;28;20479;-75
2021/06/29 06:45:19;;;;;;;7.00;5.73;;;21.00;81.20;;;;;;5052748;28;20460;-75
2021/06/29 06:47:46;;;;;;;6.43;4.90;;;21.00;80.90;;;;;;5045848;28;20548;-75
2021/06/29 06:50:13;;;;;;;4.80;4.50;;;20.80;81.00;;;;;;5051357;28;20523;-75
2021/06/29 06:52:40;;;;;;;6.93;5.50;;;20.80;80.80;;;;;;5051427;28;20453;-76
2021/06/29 06:55:09;;;;;;;5.57;5.10;;;20.80;80.50;;;;;;5053771;28;21080;-75
2021/06/29 06:57:36;;;;;;;4.90;4.60;;;20.80;80.10;;;;;;5058065;28;20477;-75
2021/06/29 07:00:05;;;;;;;4.80;4.50;;;21.00;80.10;;;;;;5045713;28;20547;-75
2021/06/29 07:02:33;;;;;;;5.33;4.90;;;21.30;80.00;;;;;;5044840;28;20746;-76
2021/06/29 07:05:00;;;;;;;6.23;5.10;;;21.60;79.00;;;;;;5049299;28;20463;-75
2021/06/29 07:07:28;;;;;;;8.37;5.17;;;21.80;77.50;;;;;;5071794;28;20463;-76
2021/06/29 07:09:55;;;;;;;4.97;4.50;;;21.60;77.00;;;;;;5060449;28;20451;-74
2021/06/29 07:12:21;;;;;;;5.33;4.97;;;21.80;77.70;;;;;;5060487;28;20556;-75
2021/06/29 07:14:48;;;;;;;6.20;4.87;;;21.70;76.90;;;;;;5064563;28;20538;-75
2021/06/29 07:17:15;;;;;;;5.73;5.30;;;21.60;76.20;;;;;;5068733;28;20466;-75
2021/06/29 07:19:43;;;;;;;5.60;5.20;;;21.50;76.30;;;;;;5055190;28;20480;-75
2021/06/29 07:22:10;;;;;;;5.50;5.00;;;21.20;76.80;;;;;;5064162;28;20689;-77
2021/06/29 07:24:37;;;;;;;5.93;5.43;;;21.30;77.40;;;;;;5053489;28;20459;-83
2021/06/29 07:27:06;;;;;;;11.60;5.80;;;21.30;76.30;;;;;;5055928;28;20452;-85
2021/06/29 07:29:34;;;;;;;6.13;5.53;;;21.00;77.50;;;;;;5063015;28;20498;-82
2021/06/29 07:32:01;;;;;;;6.70;6.13;;;21.10;76.90;;;;;;5045374;28;20445;-82
2021/06/29 07:34:28;;;;;;;6.30;5.80;;;20.60;76.50;;;;;;5058816;28;20519;-79
2021/06/29 07:36:56;;;;;;;5.40;4.90;;;20.40;77.30;;;;;;5060279;28;20463;-78
2021/06/29 07:39:24;;;;;;;7.40;5.17;;;21.00;77.20;;;;;;5062456;28;20448;-81
2021/06/29 07:41:51;;;;;;;5.83;5.40;;;21.40;76.30;;;;;;5059949;28;20453;-81
2021/06/29 07:44:18;;;;;;;5.60;4.77;;;21.40;76.60;;;;;;5058367;28;20441;-81
2021/06/29 07:46:45;;;;;;;4.77;4.47;;;21.50;76.40;;;;;;5062713;28;20472;-80
2021/06/29 07:49:12;;;;;;;5.80;4.50;;;21.90;74.70;;;;;;5062204;28;20469;-83
2021/06/29 07:51:39;;;;;;;5.80;5.30;;;21.70;75.00;;;;;;5061297;28;20461;-80
2021/06/29 07:54:08;;;;;;;6.33;5.50;;;21.50;75.90;;;;;;5057574;28;20449;-80
2021/06/29 07:56:37;;;;;;;5.93;5.37;;;21.40;76.50;;;;;;5054690;28;20977;-80
2021/06/29 07:59:04;;;;;;;6.17;5.57;;;21.20;76.50;;;;;;5065527;28;20864;-80
2021/06/29 08:01:31;;;;;;;6.00;5.47;;;21.30;76.60;;;;;;5054669;28;20454;-82
2021/06/29 08:03:58;;;;;;;6.67;6.00;;;21.10;77.50;;;;;;5056954;28;20475;-80
2021/06/29 08:06:25;;;;;;;6.90;6.23;;;21.10;78.20;;;;;;5044700;28;20991;-83
2021/06/29 08:08:52;;;;;;;6.83;5.70;;;20.70;79.70;;;;;;5062505;28;20824;-81
2021/06/29 08:11:21;;;;;;;8.07;6.23;;;20.70;79.50;;;;;;5058900;28;21092;-81
2021/06/29 08:13:49;;;;;;;6.57;5.40;;;20.60;81.00;;;;;;5070840;28;20438;-81
2021/06/29 08:16:16;;;;;;;7.20;6.60;;;20.90;81.50;;;;;;5073752;28;20535;-80
2021/06/29 08:18:43;;;;;;;6.70;6.20;;;20.90;81.70;;;;;;5056433;28;20468;-81
2021/06/29 08:21:11;;;;;;;6.63;6.17;;;20.80;80.50;;;;;;5063183;28;20550;-80
2021/06/29 08:23:38;;;;;;;8.20;6.43;;;20.90;79.80;;;;;;5073565;28;20445;-81
2021/06/29 08:26:06;;;;;;;5.90;5.40;;;20.80;81.60;;;;;;5062628;28;20489;-82
2021/06/29 08:28:36;;;;;;;6.60;6.00;;;21.40;79.70;;;;;;5063177;28;20455;-81
2021/06/29 08:31:04;;;;;;;6.73;6.17;;;22.10;78.60;;;;;;5064441;28;20553;-81
2021/06/29 08:33:31;;;;;;;7.20;6.60;;;22.00;78.00;;;;;;5063974;28;20473;-81
2021/06/29 08:35:58;;;;;;;6.40;5.90;;;21.60;79.40;;;;;;5063833;28;20460;-81
2021/06/29 08:38:25;;;;;;;7.20;6.70;;;21.00;80.80;;;;;;5053528;28;20459;-81
2021/06/29 08:40:53;;;;;;;5.93;5.50;;;21.00;80.50;;;;;;5054066;28;20472;-82
2021/06/29 08:43:20;;;;;;;6.47;5.77;;;21.50;79.70;;;;;;5053778;28;20457;-80
2021/06/29 08:45:49;;;;;;;5.47;4.97;;;22.00;78.10;;;;;;5051327;28;20496;-81
2021/06/29 08:48:18;;;;;;;8.20;4.70;;;22.10;78.00;;;;;;5050803;28;20457;-80
2021/06/29 08:50:45;;;;;;;5.73;5.23;;;21.80;76.30;;;;;;5053225;28;20507;-82
2021/06/29 08:53:14;;;;;;;5.60;4.80;;;21.70;75.40;;;;;;5048670;28;20461;-80
2021/06/29 08:55:44;;;;;;;4.37;4.07;;;21.80;75.70;;;;;;5051052;28;20532;-80
2021/06/29 08:58:11;;;;;;;5.20;4.73;;;22.00;75.30;;;;;;5049800;28;20458;-80
2021/06/29 09:00:38;;;;;;;4.70;4.40;;;22.10;75.80;;;;;;5050026;28;20996;-80
2021/06/29 09:03:07;;;;;;;4.57;4.27;;;21.80;74.60;;;;;;5047303;28;20472;-78
2021/06/29 09:05:34;;;;;;;4.33;4.03;;;22.00;74.30;;;;;;5056240;28;20958;-78
2021/06/29 09:08:05;;;;;;;5.50;4.93;;;22.10;74.50;;;;;;5056357;28;20470;-80
2021/06/29 09:10:32;;;;;;;4.27;3.90;;;22.20;72.40;;;;;;5053845;28;20468;-77
2021/06/29 09:13:00;;;;;;;4.50;3.50;;;22.20;71.60;;;;;;5055711;28;20822;-78
2021/06/29 09:15:32;;;;;;;4.60;3.53;;;22.60;71.60;;;;;;5053220;28;20459;-78
2021/06/29 09:18:14;;;;;;;5.00;4.33;;;23.40;70.60;;;;;;5058992;28;20449;-77
2021/06/29 09:20:43;;;;;;;4.07;3.80;;;23.50;69.90;;;;;;5032601;28;20446;-76
2021/06/29 09:23:13;;;;;;;4.13;3.83;;;23.40;70.30;;;;;;5053394;28;20460;-77
2021/06/29 09:25:42;;;;;;;4.27;3.87;;;23.50;68.60;;;;;;5051538;28;20459;-79
2021/06/29 09:28:10;;;;;;;4.00;3.77;;;23.40;68.90;;;;;;5053089;28;20443;-76
2021/06/29 09:30:41;;;;;;;3.70;3.50;;;23.60;68.80;;;;;;5051078;28;20545;-78
2021/06/29 09:33:10;;;;;;;3.97;3.73;;;23.60;68.20;;;;;;5056950;28;20468;-78
2021/06/29 09:35:40;;;;;;;4.30;4.10;;;23.50;68.20;;;;;;5063811;28;20456;-79
2021/06/29 09:38:09;;;;;;;5.27;3.43;;;23.70;68.00;;;;;;5059059;28;20480;-78
2021/06/29 09:40:37;;;;;;;4.07;3.77;;;23.70;68.20;;;;;;5052757;28;20451;-78
2021/06/29 09:43:09;;;;;;;4.10;3.80;;;24.10;67.40;;;;;;5057130;28;20463;-76
2021/06/29 09:45:38;;;;;;;5.03;4.50;;;24.40;66.80;;;;;;5045850;28;20454;-77
2021/06/29 09:48:08;;;;;;;4.90;4.60;;;24.60;65.90;;;;;;5045928;28;20454;-76
2021/06/29 09:50:46;;;;;;;3.90;3.60;;;24.70;65.70;;;;;;5036094;28;20480;-79
2021/06/29 09:53:26;;;;;;;3.50;3.30;;;24.80;65.10;;;;;;5051458;28;20475;-79
2021/06/29 09:55:55;;;;;;;4.20;3.90;;;25.40;63.80;;;;;;5054845;28;20974;-76
2021/06/29 09:58:24;;;;;;;3.60;3.30;;;25.20;64.80;;;;;;5062881;28;20539;-77
2021/06/29 10:00:53;;;;;;;3.60;3.40;;;25.40;64.80;;;;;;5052522;28;20456;-77
2021/06/29 10:03:26;;;;;;;3.80;3.50;;;25.30;63.70;;;;;;5054677;28;20438;-76
2021/06/29 10:05:55;;;;;;;3.17;2.97;;;24.90;64.40;;;;;;5046760;28;20452;-76
2021/06/29 10:08:27;;;;;;;3.73;3.43;;;24.70;64.20;;;;;;5047063;28;20460;-76
2021/06/29 10:11:12;;;;;;;3.03;2.80;;;24.50;64.50;;;;;;5037371;28;20566;-77
2021/06/29 10:13:41;;;;;;;3.07;2.87;;;23.90;64.10;;;;;;5038481;28;20515;-77
2021/06/29 10:16:10;;;;;;;3.33;3.03;;;23.90;64.20;;;;;;5038398;28;20469;-76
2021/06/29 10:18:40;;;;;;;3.63;3.33;;;23.90;64.50;;;;;;5049289;28;20508;-78
2021/06/29 10:21:19;;;;;;;3.47;3.27;;;24.20;64.20;;;;;;5050966;28;20457;-78
2021/06/29 10:23:47;;;;;;;4.43;4.03;;;24.40;64.60;;;;;;5058896;28;20488;-77
2021/06/29 10:26:15;;;;;;;4.67;4.27;;;24.60;64.70;;;;;;5030725;28;20462;-77
2021/06/29 10:28:43;;;;;;;4.20;3.90;;;24.80;65.10;;;;;;5057729;28;20467;-75
2021/06/29 10:31:15;;;;;;;4.13;3.73;;;24.80;65.20;;;;;;5051301;28;20487;-75
2021/06/29 10:33:42;;;;;;;3.80;3.60;;;24.50;65.70;;;;;;5053395;28;20531;-76
2021/06/29 10:36:11;;;;;;;4.10;3.83;;;24.60;65.60;;;;;;5056118;28;20451;-77
2021/06/29 10:38:38;;;;;;;4.17;3.87;;;24.40;64.40;;;;;;5055221;28;20455;-76
2021/06/29 10:41:05;;;;;;;4.10;3.80;;;24.50;64.30;;;;;;5051068;28;20829;-78
2021/06/29 10:43:36;;;;;;;4.20;3.90;;;24.80;65.80;;;;;;5047520;28;20456;-77
2021/06/29 10:46:03;;;;;;;5.40;3.63;;;24.70;64.50;;;;;;5047839;28;20448;-77
2021/06/29 10:48:31;;;;;;;3.97;3.67;;;24.60;63.70;;;;;;5053483;28;20455;-76
2021/06/29 10:50:59;;;;;;;4.73;3.90;;;24.70;64.30;;;;;;5056731;28;20528;-77
2021/06/29 10:53:35;;;;;;;3.97;3.73;;;24.50;63.40;;;;;;5048783;28;20539;-76
2021/06/29 10:56:04;;;;;;;4.60;4.30;;;24.60;63.70;;;;;;5051956;28;20514;-77
2021/06/29 10:58:39;;;;;;;3.80;3.60;;;24.60;63.30;;;;;;5045980;28;20470;-76
2021/06/29 11:01:23;;;;;;;3.83;3.40;;;24.80;62.50;;;;;;5049117;28;20573;-76
2021/06/29 11:03:51;;;;;;;4.20;3.80;;;25.00;63.90;;;;;;5040113;28;20463;-75
2021/06/29 11:06:46;;;;;;;4.57;4.27;;;24.80;63.80;;;;;;5047141;28;20461;-75
2021/06/29 11:09:20;;;;;;;4.50;3.90;;;24.90;63.60;;;;;;4988566;28;20461;-76
2021/06/29 11:12:21;;;;;;;4.83;4.53;;;24.90;63.10;;;;;;5062091;28;20569;-76
2021/06/29 11:14:50;;;;;;;4.80;4.50;;;25.80;62.50;;;;;;5051421;28;20841;-76
2021/06/29 11:17:18;;;;;;;6.57;4.60;;;26.10;61.90;;;;;;5053222;28;20530;-77
2021/06/29 11:20:08;;;;;;;4.87;4.50;;;26.30;61.70;;;;;;5050709;28;20937;-75
2021/06/29 11:23:07;;;;;;;3.87;3.67;;;26.50;61.50;;;;;;5057872;28;20475;-76
2021/06/29 11:25:41;;;;;;;4.07;3.87;;;25.90;60.90;;;;;;5049994;28;20452;-77
2021/06/29 11:28:16;;;;;;;4.80;3.50;;;25.60;61.80;;;;;;5046921;28;20463;-78
2021/06/29 11:31:11;;;;;;;4.20;4.00;;;25.40;62.60;;;;;;5042245;28;20751;-78
2021/06/29 11:33:54;;;;;;;5.27;3.97;;;25.60;62.30;;;;;;5042605;28;20552;-77
2021/06/29 11:36:52;;;;;;;4.57;4.17;;;25.50;62.40;;;;;;5045849;28;20539;-76
2021/06/29 11:39:35;;;;;;;5.40;3.90;;;25.80;62.20;;;;;;5046577;28;20464;-76
2021/06/29 11:42:22;;;;;;;4.20;3.90;;;26.40;61.20;;;;;;5051073;28;20445;-77
2021/06/29 11:44:52;;;;;;;4.03;3.83;;;26.00;61.90;;;;;;5052064;28;20980;-76
2021/06/29 11:47:20;;;;;;;4.57;4.20;;;26.10;62.40;;;;;;5051476;28;20456;-77
2021/06/29 11:49:50;;;;;;;3.50;3.30;;;26.20;61.90;;;;;;5068383;28;20463;-78
2021/06/29 11:52:26;;;;;;;3.70;3.50;;;26.10;60.90;;;;;;5058742;28;20441;-80
2021/06/29 11:54:55;;;;;;;4.40;4.10;;;25.90;61.40;;;;;;5055602;28;20485;-78
2021/06/29 11:57:25;;;;;;;3.40;3.20;;;25.60;61.70;;;;;;5064628;28;20761;-78
2021/06/29 11:59:55;;;;;;;3.63;3.37;;;25.30;61.30;;;;;;5053554;28;20586;-78
2021/06/29 12:02:23;;;;;;;3.50;3.30;;;25.20;62.60;;;;;;5057259;28;20443;-78
2021/06/29 12:04:55;;;;;;;3.97;3.77;;;25.00;62.80;;;;;;5055721;28;20460;-78
2021/06/29 12:07:36;;;;;;;3.60;3.40;;;25.00;62.00;;;;;;5060209;28;20459;-78
2021/06/29 12:10:09;;;;;;;3.67;3.47;;;25.20;61.70;;;;;;5055675;28;20570;-78
2021/06/29 12:12:39;;;;;;;3.90;3.70;;;25.30;61.30;;;;;;5054385;28;20447;-79
2021/06/29 12:15:12;;;;;;;3.60;3.30;;;25.20;61.20;;;;;;5055218;28;20478;-78
2021/06/29 12:17:47;;;;;;;4.60;3.60;;;25.00;61.10;;;;;;5051551;28;20481;-78
2021/06/29 12:20:15;;;;;;;2.97;2.77;;;25.60;61.20;;;;;;5064528;28;20452;-80
2021/06/29 12:22:44;;;;;;;3.23;3.00;;;25.80;60.30;;;;;;5077689;28;20478;-80
2021/06/29 12:25:18;;;;;;;3.27;3.07;;;25.90;60.30;;;;;;5067792;28;20452;-78
2021/06/29 12:27:49;;;;;;;3.20;3.10;;;25.90;59.20;;;;;;5046225;28;20464;-78
2021/06/29 12:30:29;;;;;;;3.67;2.90;;;26.10;59.20;;;;;;5050169;28;20519;-80
2021/06/29 12:32:56;;;;;;;3.43;3.13;;;26.00;59.00;;;;;;5068449;28;20467;-79
2021/06/29 12:35:29;;;;;;;3.13;2.83;;;26.30;59.00;;;;;;5042816;28;20533;-79
2021/06/29 12:37:59;;;;;;;3.80;3.07;;;26.50;59.70;;;;;;5061415;28;20449;-79
2021/06/29 12:40:29;;;;;;;3.43;3.13;;;26.10;59.70;;;;;;5056617;28;20505;-79
2021/06/29 12:42:57;;;;;;;3.40;3.10;;;25.70;60.00;;;;;;5051699;28;20514;-79
2021/06/29 12:45:28;;;;;;;3.40;3.10;;;25.10;59.90;;;;;;5051551;28;21018;-77
2021/06/29 12:48:07;;;;;;;2.83;2.63;;;25.00;61.20;;;;;;5040882;28;20543;-77
2021/06/29 12:50:35;;;;;;;3.47;3.17;;;25.00;60.50;;;;;;5043402;28;20525;-76
2021/06/29 12:53:02;;;;;;;2.50;2.40;;;24.90;60.60;;;;;;5037095;28;20469;-75
2021/06/29 12:55:32;;;;;;;2.90;2.70;;;25.00;60.10;;;;;;5056709;28;20454;-78
2021/06/29 12:58:16;;;;;;;2.20;2.10;;;25.30;59.10;;;;;;5041429;28;20524;-79